Main page
METAR-TAF:

METAR-TAF

Airports :

Estherville Municipal Airport

Estherville, Iowa, United States

latitude: 43-24-04N, longitude: 094-44-50W, elevation: 1315 ft

Current weather observation

The report was made 34 minutes ago, at 21:52 UTC
Wind 13 mph from the Southwest
Temperature 16°F
Humidity 62%
Pressure 30.63 in. Hg
Visibility: 10 miles
Clear sky

METAR: KEST 202152Z AUTO 22011KT 10SM CLR M09/M15 A3063 RMK AO2 SLP407 T10891150

Time: 16:26 (22:26 UTC)


TAF: missing

Weather observations and forecasts of more than 4000 airports (METAR and TAF reports).

The available stations are represented by yellow and red dots on the map.

Hover mouse over dot to see the name of the station.

Then click to see weather observations and forecasts.

To change the map : click on the green buttons with a black cross to zoom in, on the green button with a dash to zoom out, or on the green arrows for adjacent maps.


METAR-TAF: